sensor_id;sensor_type;location;lat;lon;timestamp;P1;durP1;ratioP1;P2;durP2;ratioP2
48847;SDS011;75039;51.970;5.660;2024-03-02T00:01:35;3.78;;;1.20;;
48847;SDS011;75039;51.970;5.660;2024-03-02T00:04:05;2.72;;;1.50;;
48847;SDS011;75039;51.970;5.660;2024-03-02T00:06:34;3.90;;;1.20;;
48847;SDS011;75039;51.970;5.660;2024-03-02T00:09:01;2.70;;;1.30;;
48847;SDS011;75039;51.970;5.660;2024-03-02T00:11:29;2.63;;;1.52;;
48847;SDS011;75039;51.970;5.660;2024-03-02T00:13:56;1.95;;;1.30;;
48847;SDS011;75039;51.970;5.660;2024-03-02T00:16:22;1.73;;;1.33;;
48847;SDS011;75039;51.970;5.660;2024-03-02T00:18:50;1.30;;;1.17;;
48847;SDS011;75039;51.970;5.660;2024-03-02T00:21:17;3.40;;;1.50;;
48847;SDS011;75039;51.970;5.660;2024-03-02T00:23:47;2.90;;;1.40;;
48847;SDS011;75039;51.970;5.660;2024-03-02T00:26:15;3.00;;;1.55;;
48847;SDS011;75039;51.970;5.660;2024-03-02T00:28:42;2.53;;;1.17;;
48847;SDS011;75039;51.970;5.660;2024-03-02T00:31:11;3.08;;;1.48;;
48847;SDS011;75039;51.970;5.660;2024-03-02T00:36:11;3.28;;;1.35;;
48847;SDS011;75039;51.970;5.660;2024-03-02T00:38:42;3.85;;;1.40;;
48847;SDS011;75039;51.970;5.660;2024-03-02T00:46:24;2.03;;;1.30;;
48847;SDS011;75039;51.970;5.660;2024-03-02T00:48:55;2.17;;;1.35;;
48847;SDS011;75039;51.970;5.660;2024-03-02T00:51:24;4.80;;;1.50;;
48847;SDS011;75039;51.970;5.660;2024-03-02T00:53:52;2.58;;;1.50;;
48847;SDS011;75039;51.970;5.660;2024-03-02T00:56:22;3.85;;;1.58;;
48847;SDS011;75039;51.970;5.660;2024-03-02T00:58:52;2.65;;;1.10;;
48847;SDS011;75039;51.970;5.660;2024-03-02T01:01:19;2.75;;;1.33;;
48847;SDS011;75039;51.970;5.660;2024-03-02T01:03:46;2.17;;;1.20;;
48847;SDS011;75039;51.970;5.660;2024-03-02T01:06:13;3.05;;;0.90;;
48847;SDS011;75039;51.970;5.660;2024-03-02T01:08:40;1.33;;;0.60;;
48847;SDS011;75039;51.970;5.660;2024-03-02T01:11:07;1.05;;;0.50;;
48847;SDS011;75039;51.970;5.660;2024-03-02T01:13:33;0.88;;;0.50;;
48847;SDS011;75039;51.970;5.660;2024-03-02T01:16:00;1.30;;;0.40;;
48847;SDS011;75039;51.970;5.660;2024-03-02T01:18:27;0.85;;;0.50;;
48847;SDS011;75039;51.970;5.660;2024-03-02T01:20:54;0.38;;;0.30;;
48847;SDS011;75039;51.970;5.660;2024-03-02T01:23:24;0.80;;;0.50;;
48847;SDS011;75039;51.970;5.660;2024-03-02T01:25:51;0.70;;;0.40;;
48847;SDS011;75039;51.970;5.660;2024-03-02T01:28:18;0.73;;;0.45;;
48847;SDS011;75039;51.970;5.660;2024-03-02T01:30:47;0.88;;;0.50;;
48847;SDS011;75039;51.970;5.660;2024-03-02T01:33:14;0.90;;;0.60;;
48847;SDS011;75039;51.970;5.660;2024-03-02T01:35:41;1.00;;;0.63;;
48847;SDS011;75039;51.970;5.660;2024-03-02T01:38:09;0.65;;;0.52;;
48847;SDS011;75039;51.970;5.660;2024-03-02T01:40:36;1.52;;;0.50;;
48847;SDS011;75039;51.970;5.660;2024-03-02T01:43:04;1.58;;;0.55;;
48847;SDS011;75039;51.970;5.660;2024-03-02T01:45:32;0.93;;;0.77;;
48847;SDS011;75039;51.970;5.660;2024-03-02T01:47:59;0.85;;;0.60;;
48847;SDS011;75039;51.970;5.660;2024-03-02T01:50:31;1.30;;;1.10;;
48847;SDS011;75039;51.970;5.660;2024-03-02T01:52:58;1.50;;;0.82;;
48847;SDS011;75039;51.970;5.660;2024-03-02T01:55:26;1.35;;;0.68;;
48847;SDS011;75039;51.970;5.660;2024-03-02T01:57:55;0.50;;;0.40;;
48847;SDS011;75039;51.970;5.660;2024-03-02T02:00:23;1.88;;;0.60;;
48847;SDS011;75039;51.970;5.660;2024-03-02T02:02:52;0.70;;;0.50;;
48847;SDS011;75039;51.970;5.660;2024-03-02T02:05:20;1.20;;;0.60;;
48847;SDS011;75039;51.970;5.660;2024-03-02T02:07:47;0.93;;;0.40;;
48847;SDS011;75039;51.970;5.660;2024-03-02T02:10:14;0.68;;;0.50;;
48847;SDS011;75039;51.970;5.660;2024-03-02T02:12:41;0.68;;;0.60;;
48847;SDS011;75039;51.970;5.660;2024-03-02T02:17:55;2.05;;;0.50;;
48847;SDS011;75039;51.970;5.660;2024-03-02T02:20:25;1.90;;;0.57;;
48847;SDS011;75039;51.970;5.660;2024-03-02T02:25:24;1.33;;;0.75;;
48847;SDS011;75039;51.970;5.660;2024-03-02T02:27:52;1.42;;;0.70;;
48847;SDS011;75039;51.970;5.660;2024-03-02T02:30:23;1.23;;;0.70;;
48847;SDS011;75039;51.970;5.660;2024-03-02T02:32:52;0.75;;;0.60;;
48847;SDS011;75039;51.970;5.660;2024-03-02T02:35:18;1.33;;;0.73;;
48847;SDS011;75039;51.970;5.660;2024-03-02T02:37:45;1.30;;;0.80;;
48847;SDS011;75039;51.970;5.660;2024-03-02T02:40:13;2.08;;;1.15;;
48847;SDS011;75039;51.970;5.660;2024-03-02T02:42:40;1.25;;;0.88;;
48847;SDS011;75039;51.970;5.660;2024-03-02T02:45:07;2.22;;;0.85;;
48847;SDS011;75039;51.970;5.660;2024-03-02T02:47:34;0.93;;;0.57;;
48847;SDS011;75039;51.970;5.660;2024-03-02T02:50:03;1.65;;;0.65;;
48847;SDS011;75039;51.970;5.660;2024-03-02T02:52:31;1.85;;;0.47;;
48847;SDS011;75039;51.970;5.660;2024-03-02T02:55:03;1.02;;;0.50;;
48847;SDS011;75039;51.970;5.660;2024-03-02T02:57:31;1.38;;;0.50;;
48847;SDS011;75039;51.970;5.660;2024-03-02T03:00:02;5.40;;;1.15;;
48847;SDS011;75039;51.970;5.660;2024-03-02T03:02:37;1.50;;;0.90;;
48847;SDS011;75039;51.970;5.660;2024-03-02T03:05:05;1.35;;;0.57;;
48847;SDS011;75039;51.970;5.660;2024-03-02T03:07:32;1.38;;;0.80;;
48847;SDS011;75039;51.970;5.660;2024-03-02T03:10:05;2.03;;;1.00;;
48847;SDS011;75039;51.970;5.660;2024-03-02T03:12:33;1.70;;;1.30;;
48847;SDS011;75039;51.970;5.660;2024-03-02T03:15:00;2.47;;;1.10;;
48847;SDS011;75039;51.970;5.660;2024-03-02T03:17:27;1.30;;;0.90;;
48847;SDS011;75039;51.970;5.660;2024-03-02T03:19:54;0.98;;;0.50;;
48847;SDS011;75039;51.970;5.660;2024-03-02T03:22:21;0.70;;;0.50;;
48847;SDS011;75039;51.970;5.660;2024-03-02T03:24:48;0.93;;;0.50;;
48847;SDS011;75039;51.970;5.660;2024-03-02T03:27:14;0.60;;;0.50;;
48847;SDS011;75039;51.970;5.660;2024-03-02T03:29:41;0.60;;;0.40;;
48847;SDS011;75039;51.970;5.660;2024-03-02T03:32:08;1.38;;;0.63;;
48847;SDS011;75039;51.970;5.660;2024-03-02T03:34:35;1.33;;;0.75;;
48847;SDS011;75039;51.970;5.660;2024-03-02T03:37:02;1.25;;;0.65;;
48847;SDS011;75039;51.970;5.660;2024-03-02T03:39:29;0.80;;;0.60;;
48847;SDS011;75039;51.970;5.660;2024-03-02T03:41:56;0.95;;;0.50;;
48847;SDS011;75039;51.970;5.660;2024-03-02T03:44:22;3.03;;;0.55;;
48847;SDS011;75039;51.970;5.660;2024-03-02T03:46:49;0.82;;;0.50;;
48847;SDS011;75039;51.970;5.660;2024-03-02T03:49:16;1.98;;;1.02;;
48847;SDS011;75039;51.970;5.660;2024-03-02T03:51:43;1.05;;;0.60;;
48847;SDS011;75039;51.970;5.660;2024-03-02T03:54:10;1.02;;;0.90;;
48847;SDS011;75039;51.970;5.660;2024-03-02T03:56:37;2.47;;;1.50;;
48847;SDS011;75039;51.970;5.660;2024-03-02T03:59:05;2.20;;;1.70;;
48847;SDS011;75039;51.970;5.660;2024-03-02T04:01:32;2.00;;;1.50;;
48847;SDS011;75039;51.970;5.660;2024-03-02T04:03:59;1.70;;;1.10;;
48847;SDS011;75039;51.970;5.660;2024-03-02T04:06:25;1.58;;;0.80;;
48847;SDS011;75039;51.970;5.660;2024-03-02T04:08:52;0.70;;;0.55;;
48847;SDS011;75039;51.970;5.660;2024-03-02T04:11:19;1.42;;;0.65;;
48847;SDS011;75039;51.970;5.660;2024-03-02T04:13:46;1.35;;;0.60;;
48847;SDS011;75039;51.970;5.660;2024-03-02T04:16:12;1.25;;;0.65;;
48847;SDS011;75039;51.970;5.660;2024-03-02T04:18:39;1.10;;;0.80;;
48847;SDS011;75039;51.970;5.660;2024-03-02T04:21:06;1.83;;;0.80;;
48847;SDS011;75039;51.970;5.660;2024-03-02T04:23:33;1.42;;;0.63;;
48847;SDS011;75039;51.970;5.660;2024-03-02T04:25:59;1.00;;;0.50;;
48847;SDS011;75039;51.970;5.660;2024-03-02T04:28:26;0.88;;;0.50;;
48847;SDS011;75039;51.970;5.660;2024-03-02T04:30:52;0.75;;;0.55;;
48847;SDS011;75039;51.970;5.660;2024-03-02T04:33:19;2.20;;;0.60;;
48847;SDS011;75039;51.970;5.660;2024-03-02T04:35:46;1.80;;;0.50;;
48847;SDS011;75039;51.970;5.660;2024-03-02T04:38:13;1.60;;;0.50;;
48847;SDS011;75039;51.970;5.660;2024-03-02T04:40:40;4.40;;;0.80;;
48847;SDS011;75039;51.970;5.660;2024-03-02T04:43:06;0.90;;;0.70;;
48847;SDS011;75039;51.970;5.660;2024-03-02T04:45:37;2.58;;;1.10;;
48847;SDS011;75039;51.970;5.660;2024-03-02T04:48:05;4.22;;;1.35;;
48847;SDS011;75039;51.970;5.660;2024-03-02T04:50:32;1.55;;;1.20;;
48847;SDS011;75039;51.970;5.660;2024-03-02T04:52:59;2.85;;;1.60;;
48847;SDS011;75039;51.970;5.660;2024-03-02T04:55:26;2.90;;;1.30;;
48847;SDS011;75039;51.970;5.660;2024-03-02T04:57:55;4.82;;;1.00;;
48847;SDS011;75039;51.970;5.660;2024-03-02T05:00:22;2.08;;;0.80;;
48847;SDS011;75039;51.970;5.660;2024-03-02T05:02:50;1.60;;;1.25;;
48847;SDS011;75039;51.970;5.660;2024-03-02T05:05:17;2.40;;;1.27;;
48847;SDS011;75039;51.970;5.660;2024-03-02T05:07:44;2.38;;;1.30;;
48847;SDS011;75039;51.970;5.660;2024-03-02T05:10:11;2.25;;;1.23;;
48847;SDS011;75039;51.970;5.660;2024-03-02T05:12:41;1.10;;;0.85;;
48847;SDS011;75039;51.970;5.660;2024-03-02T05:15:11;1.10;;;0.70;;
48847;SDS011;75039;51.970;5.660;2024-03-02T05:17:39;1.75;;;0.80;;
48847;SDS011;75039;51.970;5.660;2024-03-02T05:20:06;1.65;;;0.60;;
48847;SDS011;75039;51.970;5.660;2024-03-02T05:22:37;1.95;;;0.50;;
48847;SDS011;75039;51.970;5.660;2024-03-02T05:25:04;1.40;;;0.70;;
48847;SDS011;75039;51.970;5.660;2024-03-02T05:27:31;0.75;;;0.45;;
48847;SDS011;75039;51.970;5.660;2024-03-02T05:30:01;0.85;;;0.50;;
48847;SDS011;75039;51.970;5.660;2024-03-02T05:32:28;0.80;;;0.50;;
48847;SDS011;75039;51.970;5.660;2024-03-02T05:34:54;0.82;;;0.60;;
48847;SDS011;75039;51.970;5.660;2024-03-02T05:37:21;1.23;;;0.60;;
48847;SDS011;75039;51.970;5.660;2024-03-02T05:39:48;0.60;;;0.43;;
48847;SDS011;75039;51.970;5.660;2024-03-02T05:42:15;1.88;;;0.65;;
48847;SDS011;75039;51.970;5.660;2024-03-02T05:44:43;1.10;;;0.65;;
48847;SDS011;75039;51.970;5.660;2024-03-02T05:47:10;0.70;;;0.50;;
48847;SDS011;75039;51.970;5.660;2024-03-02T05:49:36;1.73;;;0.68;;
48847;SDS011;75039;51.970;5.660;2024-03-02T05:52:04;1.40;;;0.60;;
48847;SDS011;75039;51.970;5.660;2024-03-02T05:54:30;1.17;;;0.50;;
48847;SDS011;75039;51.970;5.660;2024-03-02T05:57:00;0.70;;;0.50;;
48847;SDS011;75039;51.970;5.660;2024-03-02T05:59:43;2.22;;;0.85;;
48847;SDS011;75039;51.970;5.660;2024-03-02T06:02:10;0.77;;;0.55;;
48847;SDS011;75039;51.970;5.660;2024-03-02T06:04:37;2.35;;;0.60;;
48847;SDS011;75039;51.970;5.660;2024-03-02T06:07:04;1.38;;;0.90;;
48847;SDS011;75039;51.970;5.660;2024-03-02T06:09:30;1.55;;;0.82;;
48847;SDS011;75039;51.970;5.660;2024-03-02T06:11:57;1.65;;;1.00;;
48847;SDS011;75039;51.970;5.660;2024-03-02T06:14:24;1.52;;;0.50;;
48847;SDS011;75039;51.970;5.660;2024-03-02T06:16:51;2.60;;;0.90;;
48847;SDS011;75039;51.970;5.660;2024-03-02T06:19:17;1.25;;;0.60;;
48847;SDS011;75039;51.970;5.660;2024-03-02T06:21:44;1.38;;;0.60;;
48847;SDS011;75039;51.970;5.660;2024-03-02T06:24:11;1.80;;;0.85;;
48847;SDS011;75039;51.970;5.660;2024-03-02T06:26:37;1.10;;;0.70;;
48847;SDS011;75039;51.970;5.660;2024-03-02T06:29:05;0.70;;;0.55;;
48847;SDS011;75039;51.970;5.660;2024-03-02T06:31:32;3.47;;;0.70;;
48847;SDS011;75039;51.970;5.660;2024-03-02T06:33:59;1.67;;;1.00;;
48847;SDS011;75039;51.970;5.660;2024-03-02T06:36:25;3.45;;;1.50;;
48847;SDS011;75039;51.970;5.660;2024-03-02T06:38:52;2.00;;;1.00;;
48847;SDS011;75039;51.970;5.660;2024-03-02T06:41:19;2.58;;;1.10;;
48847;SDS011;75039;51.970;5.660;2024-03-02T06:43:45;2.60;;;1.65;;
48847;SDS011;75039;51.970;5.660;2024-03-02T06:46:12;2.65;;;1.50;;
48847;SDS011;75039;51.970;5.660;2024-03-02T06:48:41;2.50;;;1.15;;
48847;SDS011;75039;51.970;5.660;2024-03-02T06:51:08;1.92;;;1.00;;
48847;SDS011;75039;51.970;5.660;2024-03-02T06:53:35;1.52;;;0.70;;
48847;SDS011;75039;51.970;5.660;2024-03-02T06:56:02;2.55;;;0.85;;
48847;SDS011;75039;51.970;5.660;2024-03-02T06:58:28;4.03;;;1.10;;
48847;SDS011;75039;51.970;5.660;2024-03-02T07:00:55;4.40;;;1.70;;
48847;SDS011;75039;51.970;5.660;2024-03-02T07:03:22;6.13;;;1.52;;
48847;SDS011;75039;51.970;5.660;2024-03-02T07:05:49;2.63;;;1.42;;
48847;SDS011;75039;51.970;5.660;2024-03-02T07:08:15;1.90;;;0.98;;
48847;SDS011;75039;51.970;5.660;2024-03-02T07:10:42;4.78;;;0.80;;
48847;SDS011;75039;51.970;5.660;2024-03-02T07:13:09;2.85;;;1.10;;
48847;SDS011;75039;51.970;5.660;2024-03-02T07:15:36;1.85;;;0.80;;
48847;SDS011;75039;51.970;5.660;2024-03-02T07:18:03;2.67;;;0.70;;
48847;SDS011;75039;51.970;5.660;2024-03-02T07:20:30;1.63;;;0.82;;
48847;SDS011;75039;51.970;5.660;2024-03-02T07:22:57;1.88;;;0.70;;
48847;SDS011;75039;51.970;5.660;2024-03-02T07:25:24;3.05;;;1.02;;
48847;SDS011;75039;51.970;5.660;2024-03-02T07:27:53;1.00;;;0.63;;
48847;SDS011;75039;51.970;5.660;2024-03-02T07:30:20;1.83;;;0.75;;
48847;SDS011;75039;51.970;5.660;2024-03-02T07:32:49;2.33;;;0.80;;
48847;SDS011;75039;51.970;5.660;2024-03-02T07:35:16;1.75;;;0.90;;
48847;SDS011;75039;51.970;5.660;2024-03-02T07:37:44;1.75;;;0.70;;
48847;SDS011;75039;51.970;5.660;2024-03-02T07:40:11;2.25;;;0.77;;
48847;SDS011;75039;51.970;5.660;2024-03-02T07:42:38;3.58;;;0.80;;
48847;SDS011;75039;51.970;5.660;2024-03-02T07:45:06;1.88;;;0.75;;
48847;SDS011;75039;51.970;5.660;2024-03-02T07:47:34;2.95;;;0.90;;
48847;SDS011;75039;51.970;5.660;2024-03-02T07:50:01;2.65;;;1.13;;
48847;SDS011;75039;51.970;5.660;2024-03-02T07:52:29;2.47;;;0.90;;
48847;SDS011;75039;51.970;5.660;2024-03-02T07:54:55;2.53;;;0.70;;
48847;SDS011;75039;51.970;5.660;2024-03-02T07:57:22;1.52;;;0.60;;
48847;SDS011;75039;51.970;5.660;2024-03-02T07:59:49;2.33;;;0.73;;
48847;SDS011;75039;51.970;5.660;2024-03-02T08:02:16;2.53;;;0.68;;
48847;SDS011;75039;51.970;5.660;2024-03-02T08:04:42;2.95;;;0.90;;
48847;SDS011;75039;51.970;5.660;2024-03-02T08:07:13;3.72;;;0.90;;
48847;SDS011;75039;51.970;5.660;2024-03-02T08:09:40;2.20;;;0.60;;
48847;SDS011;75039;51.970;5.660;2024-03-02T08:12:07;2.10;;;1.10;;
48847;SDS011;75039;51.970;5.660;2024-03-02T08:14:34;1.75;;;0.85;;
48847;SDS011;75039;51.970;5.660;2024-03-02T08:17:00;5.70;;;1.15;;
48847;SDS011;75039;51.970;5.660;2024-03-02T08:19:27;2.88;;;1.10;;
48847;SDS011;75039;51.970;5.660;2024-03-02T08:21:54;3.60;;;1.17;;
48847;SDS011;75039;51.970;5.660;2024-03-02T08:24:21;1.65;;;0.90;;
48847;SDS011;75039;51.970;5.660;2024-03-02T08:26:48;3.47;;;0.80;;
48847;SDS011;75039;51.970;5.660;2024-03-02T08:29:14;3.80;;;0.77;;
48847;SDS011;75039;51.970;5.660;2024-03-02T08:31:41;1.55;;;1.00;;
48847;SDS011;75039;51.970;5.660;2024-03-02T08:34:09;3.95;;;0.77;;
48847;SDS011;75039;51.970;5.660;2024-03-02T08:36:36;2.25;;;0.80;;
48847;SDS011;75039;51.970;5.660;2024-03-02T08:39:03;1.90;;;0.80;;
48847;SDS011;75039;51.970;5.660;2024-03-02T08:41:34;3.20;;;0.65;;
48847;SDS011;75039;51.970;5.660;2024-03-02T08:44:00;2.63;;;0.70;;
48847;SDS011;75039;51.970;5.660;2024-03-02T08:46:27;2.47;;;0.63;;
48847;SDS011;75039;51.970;5.660;2024-03-02T08:48:54;3.65;;;1.00;;
48847;SDS011;75039;51.970;5.660;2024-03-02T08:51:20;3.22;;;0.90;;
48847;SDS011;75039;51.970;5.660;2024-03-02T08:53:47;2.22;;;0.77;;
48847;SDS011;75039;51.970;5.660;2024-03-02T08:56:14;3.08;;;0.93;;
48847;SDS011;75039;51.970;5.660;2024-03-02T08:58:42;2.17;;;0.80;;
48847;SDS011;75039;51.970;5.660;2024-03-02T09:01:10;1.50;;;0.90;;
48847;SDS011;75039;51.970;5.660;2024-03-02T09:03:37;2.33;;;0.73;;
48847;SDS011;75039;51.970;5.660;2024-03-02T09:06:04;3.95;;;1.40;;
48847;SDS011;75039;51.970;5.660;2024-03-02T09:08:31;2.92;;;0.88;;
48847;SDS011;75039;51.970;5.660;2024-03-02T09:10:57;2.05;;;0.73;;
48847;SDS011;75039;51.970;5.660;2024-03-02T09:13:24;1.75;;;0.88;;
48847;SDS011;75039;51.970;5.660;2024-03-02T09:15:51;4.18;;;0.98;;
48847;SDS011;75039;51.970;5.660;2024-03-02T09:18:18;4.97;;;1.00;;
48847;SDS011;75039;51.970;5.660;2024-03-02T09:20:44;2.58;;;1.27;;
48847;SDS011;75039;51.970;5.660;2024-03-02T09:23:12;2.88;;;0.90;;
48847;SDS011;75039;51.970;5.660;2024-03-02T09:25:38;2.47;;;0.77;;
48847;SDS011;75039;51.970;5.660;2024-03-02T09:28:07;4.78;;;1.10;;
48847;SDS011;75039;51.970;5.660;2024-03-02T09:30:34;1.95;;;0.70;;
48847;SDS011;75039;51.970;5.660;2024-03-02T09:33:01;2.13;;;1.00;;
48847;SDS011;75039;51.970;5.660;2024-03-02T09:35:31;3.33;;;0.98;;
48847;SDS011;75039;51.970;5.660;2024-03-02T09:37:58;4.78;;;1.40;;
48847;SDS011;75039;51.970;5.660;2024-03-02T09:40:24;3.70;;;1.60;;
48847;SDS011;75039;51.970;5.660;2024-03-02T09:42:51;4.18;;;1.00;;
48847;SDS011;75039;51.970;5.660;2024-03-02T09:45:23;4.53;;;1.17;;
48847;SDS011;75039;51.970;5.660;2024-03-02T09:47:51;2.28;;;1.00;;
48847;SDS011;75039;51.970;5.660;2024-03-02T09:50:18;6.35;;;1.45;;
48847;SDS011;75039;51.970;5.660;2024-03-02T09:52:47;3.22;;;1.05;;
48847;SDS011;75039;51.970;5.660;2024-03-02T09:55:15;3.17;;;1.00;;
48847;SDS011;75039;51.970;5.660;2024-03-02T09:57:42;3.00;;;1.23;;
48847;SDS011;75039;51.970;5.660;2024-03-02T10:00:11;4.10;;;1.00;;
48847;SDS011;75039;51.970;5.660;2024-03-02T10:02:41;3.75;;;0.88;;
48847;SDS011;75039;51.970;5.660;2024-03-02T10:05:09;2.38;;;1.05;;
48847;SDS011;75039;51.970;5.660;2024-03-02T10:07:37;5.95;;;1.42;;
48847;SDS011;75039;51.970;5.660;2024-03-02T10:10:14;6.78;;;1.25;;
48847;SDS011;75039;51.970;5.660;2024-03-02T10:12:41;5.55;;;1.35;;
48847;SDS011;75039;51.970;5.660;2024-03-02T10:15:09;3.25;;;0.98;;
48847;SDS011;75039;51.970;5.660;2024-03-02T10:17:36;3.75;;;1.02;;
48847;SDS011;75039;51.970;5.660;2024-03-02T10:20:22;2.05;;;0.90;;
48847;SDS011;75039;51.970;5.660;2024-03-02T10:22:50;3.67;;;1.30;;
48847;SDS011;75039;51.970;5.660;2024-03-02T10:25:38;4.30;;;1.15;;
48847;SDS011;75039;51.970;5.660;2024-03-02T10:28:16;3.20;;;1.30;;
48847;SDS011;75039;51.970;5.660;2024-03-02T10:30:44;4.00;;;0.90;;
48847;SDS011;75039;51.970;5.660;2024-03-02T10:33:14;4.97;;;1.75;;
48847;SDS011;75039;51.970;5.660;2024-03-02T10:35:41;1.77;;;1.08;;
48847;SDS011;75039;51.970;5.660;2024-03-02T10:38:09;5.95;;;1.20;;
48847;SDS011;75039;51.970;5.660;2024-03-02T10:40:38;2.88;;;0.93;;
48847;SDS011;75039;51.970;5.660;2024-03-02T10:43:05;2.78;;;1.00;;
48847;SDS011;75039;51.970;5.660;2024-03-02T10:45:34;3.05;;;0.90;;
48847;SDS011;75039;51.970;5.660;2024-03-02T10:48:01;3.35;;;1.08;;
48847;SDS011;75039;51.970;5.660;2024-03-02T10:50:29;3.58;;;1.40;;
48847;SDS011;75039;51.970;5.660;2024-03-02T10:52:56;3.75;;;1.13;;
48847;SDS011;75039;51.970;5.660;2024-03-02T10:55:25;3.75;;;1.00;;
48847;SDS011;75039;51.970;5.660;2024-03-02T10:57:53;4.95;;;0.98;;
48847;SDS011;75039;51.970;5.660;2024-03-02T11:00:24;3.78;;;1.00;;
48847;SDS011;75039;51.970;5.660;2024-03-02T11:02:56;3.08;;;1.02;;
48847;SDS011;75039;51.970;5.660;2024-03-02T11:05:27;2.30;;;1.35;;
48847;SDS011;75039;51.970;5.660;2024-03-02T11:08:00;2.78;;;0.73;;
48847;SDS011;75039;51.970;5.660;2024-03-02T11:10:36;5.97;;;1.40;;
48847;SDS011;75039;51.970;5.660;2024-03-02T11:13:14;2.08;;;0.90;;
48847;SDS011;75039;51.970;5.660;2024-03-02T11:15:43;2.88;;;1.38;;
48847;SDS011;75039;51.970;5.660;2024-03-02T11:18:10;3.58;;;1.20;;
48847;SDS011;75039;51.970;5.660;2024-03-02T11:20:38;2.47;;;1.20;;
48847;SDS011;75039;51.970;5.660;2024-03-02T11:23:07;4.38;;;0.90;;
48847;SDS011;75039;51.970;5.660;2024-03-02T11:25:35;3.72;;;1.20;;
48847;SDS011;75039;51.970;5.660;2024-03-02T11:28:03;4.05;;;1.00;;
48847;SDS011;75039;51.970;5.660;2024-03-02T11:33:05;3.60;;;1.25;;
48847;SDS011;75039;51.970;5.660;2024-03-02T11:35:42;3.55;;;0.90;;
48847;SDS011;75039;51.970;5.660;2024-03-02T11:38:11;4.45;;;1.17;;
48847;SDS011;75039;51.970;5.660;2024-03-02T11:40:39;2.97;;;0.90;;
48847;SDS011;75039;51.970;5.660;2024-03-02T11:43:07;2.50;;;0.90;;
48847;SDS011;75039;51.970;5.660;2024-03-02T11:45:37;4.25;;;1.00;;
48847;SDS011;75039;51.970;5.660;2024-03-02T11:48:08;4.22;;;1.20;;
48847;SDS011;75039;51.970;5.660;2024-03-02T11:50:40;2.90;;;1.02;;
48847;SDS011;75039;51.970;5.660;2024-03-02T11:53:09;1.65;;;0.90;;
48847;SDS011;75039;51.970;5.660;2024-03-02T11:55:39;2.03;;;1.10;;
48847;SDS011;75039;51.970;5.660;2024-03-02T11:58:13;1.40;;;0.65;;
48847;SDS011;75039;51.970;5.660;2024-03-02T12:00:41;1.20;;;0.88;;
48847;SDS011;75039;51.970;5.660;2024-03-02T12:03:09;4.10;;;1.00;;
48847;SDS011;75039;51.970;5.660;2024-03-02T12:05:39;2.92;;;1.05;;
48847;SDS011;75039;51.970;5.660;2024-03-02T12:08:06;2.80;;;0.70;;
48847;SDS011;75039;51.970;5.660;2024-03-02T12:10:34;3.17;;;1.30;;
48847;SDS011;75039;51.970;5.660;2024-03-02T12:13:02;2.90;;;0.80;;
48847;SDS011;75039;51.970;5.660;2024-03-02T12:15:34;3.15;;;0.93;;
48847;SDS011;75039;51.970;5.660;2024-03-02T12:20:33;3.15;;;1.10;;
48847;SDS011;75039;51.970;5.660;2024-03-02T12:23:00;3.63;;;1.10;;
48847;SDS011;75039;51.970;5.660;2024-03-02T12:25:29;2.45;;;0.82;;
48847;SDS011;75039;51.970;5.660;2024-03-02T12:27:56;6.05;;;1.30;;
48847;SDS011;75039;51.970;5.660;2024-03-02T12:30:26;2.97;;;0.95;;
48847;SDS011;75039;51.970;5.660;2024-03-02T12:32:57;4.60;;;1.27;;
48847;SDS011;75039;51.970;5.660;2024-03-02T12:35:24;2.58;;;1.00;;
48847;SDS011;75039;51.970;5.660;2024-03-02T12:37:51;1.92;;;1.13;;
48847;SDS011;75039;51.970;5.660;2024-03-02T12:40:19;4.07;;;1.40;;
48847;SDS011;75039;51.970;5.660;2024-03-02T12:42:49;2.22;;;0.82;;
48847;SDS011;75039;51.970;5.660;2024-03-02T12:45:17;4.25;;;1.15;;
48847;SDS011;75039;51.970;5.660;2024-03-02T12:47:51;6.10;;;1.50;;
48847;SDS011;75039;51.970;5.660;2024-03-02T12:50:19;2.70;;;1.50;;
48847;SDS011;75039;51.970;5.660;2024-03-02T12:52:53;4.07;;;1.30;;
48847;SDS011;75039;51.970;5.660;2024-03-02T12:55:21;4.53;;;1.48;;
48847;SDS011;75039;51.970;5.660;2024-03-02T12:57:50;3.42;;;1.25;;
48847;SDS011;75039;51.970;5.660;2024-03-02T13:00:18;3.05;;;1.00;;
48847;SDS011;75039;51.970;5.660;2024-03-02T13:02:45;4.20;;;1.27;;
48847;SDS011;75039;51.970;5.660;2024-03-02T13:05:12;3.22;;;1.13;;
48847;SDS011;75039;51.970;5.660;2024-03-02T13:07:40;4.65;;;1.33;;
48847;SDS011;75039;51.970;5.660;2024-03-02T13:10:12;4.07;;;0.95;;
48847;SDS011;75039;51.970;5.660;2024-03-02T13:12:39;3.22;;;1.38;;
48847;SDS011;75039;51.970;5.660;2024-03-02T13:15:07;2.72;;;1.38;;
48847;SDS011;75039;51.970;5.660;2024-03-02T13:17:35;2.60;;;1.23;;
48847;SDS011;75039;51.970;5.660;2024-03-02T13:20:04;2.63;;;1.23;;
48847;SDS011;75039;51.970;5.660;2024-03-02T13:22:37;3.65;;;1.10;;
48847;SDS011;75039;51.970;5.660;2024-03-02T13:25:06;4.57;;;1.45;;
48847;SDS011;75039;51.970;5.660;2024-03-02T13:27:37;2.65;;;1.20;;
48847;SDS011;75039;51.970;5.660;2024-03-02T13:30:04;2.75;;;1.20;;
48847;SDS011;75039;51.970;5.660;2024-03-02T13:32:32;2.28;;;1.33;;
48847;SDS011;75039;51.970;5.660;2024-03-02T13:34:59;2.20;;;1.00;;
48847;SDS011;75039;51.970;5.660;2024-03-02T13:37:26;2.40;;;1.25;;
48847;SDS011;75039;51.970;5.660;2024-03-02T13:39:53;5.25;;;1.55;;
48847;SDS011;75039;51.970;5.660;2024-03-02T13:42:20;5.18;;;1.35;;
48847;SDS011;75039;51.970;5.660;2024-03-02T13:44:46;3.58;;;1.45;;
48847;SDS011;75039;51.970;5.660;2024-03-02T13:47:15;3.80;;;1.27;;
48847;SDS011;75039;51.970;5.660;2024-03-02T13:49:43;2.47;;;1.00;;
48847;SDS011;75039;51.970;5.660;2024-03-02T13:52:12;4.38;;;0.90;;
48847;SDS011;75039;51.970;5.660;2024-03-02T13:54:46;3.00;;;1.30;;
48847;SDS011;75039;51.970;5.660;2024-03-02T13:57:14;2.92;;;1.00;;
48847;SDS011;75039;51.970;5.660;2024-03-02T13:59:41;2.55;;;1.15;;
48847;SDS011;75039;51.970;5.660;2024-03-02T14:02:09;3.00;;;0.90;;
48847;SDS011;75039;51.970;5.660;2024-03-02T14:04:37;2.75;;;1.38;;
48847;SDS011;75039;51.970;5.660;2024-03-02T14:07:06;2.88;;;0.90;;
48847;SDS011;75039;51.970;5.660;2024-03-02T14:09:38;4.95;;;0.95;;
48847;SDS011;75039;51.970;5.660;2024-03-02T14:12:05;2.45;;;0.85;;
48847;SDS011;75039;51.970;5.660;2024-03-02T14:14:32;2.05;;;0.90;;
48847;SDS011;75039;51.970;5.660;2024-03-02T14:16:59;2.67;;;1.08;;
48847;SDS011;75039;51.970;5.660;2024-03-02T14:19:30;3.65;;;1.00;;
48847;SDS011;75039;51.970;5.660;2024-03-02T14:21:57;1.77;;;0.77;;
48847;SDS011;75039;51.970;5.660;2024-03-02T14:24:23;2.88;;;1.10;;
48847;SDS011;75039;51.970;5.660;2024-03-02T14:26:52;3.47;;;0.90;;
48847;SDS011;75039;51.970;5.660;2024-03-02T14:29:28;3.08;;;1.08;;
48847;SDS011;75039;51.970;5.660;2024-03-02T14:31:55;1.80;;;0.80;;
48847;SDS011;75039;51.970;5.660;2024-03-02T14:34:21;2.20;;;0.95;;
48847;SDS011;75039;51.970;5.660;2024-03-02T14:36:48;4.63;;;1.00;;
48847;SDS011;75039;51.970;5.660;2024-03-02T14:39:15;4.32;;;1.10;;
48847;SDS011;75039;51.970;5.660;2024-03-02T14:41:42;2.47;;;1.45;;
48847;SDS011;75039;51.970;5.660;2024-03-02T14:44:10;2.00;;;0.70;;
48847;SDS011;75039;51.970;5.660;2024-03-02T14:46:37;2.35;;;1.00;;
48847;SDS011;75039;51.970;5.660;2024-03-02T14:49:06;2.05;;;1.02;;
48847;SDS011;75039;51.970;5.660;2024-03-02T14:51:32;1.95;;;0.80;;
48847;SDS011;75039;51.970;5.660;2024-03-02T14:53:59;3.83;;;1.27;;
48847;SDS011;75039;51.970;5.660;2024-03-02T14:56:26;2.20;;;0.80;;
48847;SDS011;75039;51.970;5.660;2024-03-02T14:58:52;2.28;;;0.90;;
48847;SDS011;75039;51.970;5.660;2024-03-02T15:01:20;2.50;;;1.10;;
48847;SDS011;75039;51.970;5.660;2024-03-02T15:03:49;3.47;;;0.93;;
48847;SDS011;75039;51.970;5.660;2024-03-02T15:06:16;2.88;;;0.90;;
48847;SDS011;75039;51.970;5.660;2024-03-02T15:08:43;3.10;;;1.15;;
48847;SDS011;75039;51.970;5.660;2024-03-02T15:11:12;3.38;;;1.30;;